createdAt,value
2023-03-29T00:00:09.449Z,71.79
2023-03-29T00:02:59.466Z,71.90
2023-03-29T00:05:26.910Z,73.23
2023-03-29T00:07:54.562Z,73.42
2023-03-29T00:10:24.141Z,73.90
2023-03-29T00:12:52.708Z,73.64
2023-03-29T00:15:21.050Z,74.27
2023-03-29T00:17:48.724Z,73.08
2023-03-29T00:20:16.688Z,74.29
2023-03-29T00:22:46.804Z,73.47
2023-03-29T00:25:14.376Z,73.02
2023-03-29T00:27:42.027Z,75.01
2023-03-29T00:30:10.348Z,76.14
2023-03-29T00:32:37.950Z,76.95
2023-03-29T00:35:06.651Z,77.38
2023-03-29T00:37:34.175Z,77.81
2023-03-29T00:40:01.778Z,80.38
2023-03-29T00:42:30.661Z,80.08
2023-03-29T00:45:09.946Z,80.91
2023-03-29T00:47:48.848Z,79.59
2023-03-29T00:50:26.354Z,80.59
2023-03-29T00:53:19.663Z,80.66
2023-03-29T00:55:55.842Z,81.76
2023-03-29T00:58:34.354Z,81.20
2023-03-29T01:01:08.806Z,81.16
2023-03-29T01:03:46.598Z,82.20
2023-03-29T01:06:17.306Z,82.46
2023-03-29T01:08:54.655Z,83.39
2023-03-29T01:11:29.214Z,81.97
2023-03-29T01:14:15.627Z,83.29
2023-03-29T01:16:43.379Z,84.04
2023-03-29T01:19:15.474Z,85.58
2023-03-29T01:21:52.973Z,86.67
2023-03-29T01:24:42.183Z,86.65
2023-03-29T01:27:22.912Z,85.91
2023-03-29T01:29:57.880Z,86.48
2023-03-29T01:32:35.358Z,86.58
2023-03-29T01:35:11.829Z,88.57
2023-03-29T01:38:24.511Z,88.54
2023-03-29T01:40:52.400Z,87.47
2023-03-29T01:43:26.933Z,88.39
2023-03-29T01:46:35.609Z,89.79
2023-03-29T01:49:22.590Z,89.40
2023-03-29T01:52:01.319Z,89.50
2023-03-29T01:54:31.692Z,89.42
2023-03-29T01:57:03.303Z,89.31
2023-03-29T01:59:35.041Z,89.11
2023-03-29T02:02:08.326Z,90.08
2023-03-29T02:04:39.968Z,90.06
2023-03-29T02:07:10.710Z,90.26
2023-03-29T02:09:40.053Z,89.93
2023-03-29T02:12:09.589Z,89.61
2023-03-29T02:14:37.524Z,88.74
2023-03-29T02:17:21.182Z,89.70
2023-03-29T02:19:58.155Z,89.70
2023-03-29T02:22:37.255Z,88.92
2023-03-29T02:25:09.070Z,89.40
2023-03-29T02:27:38.160Z,88.73
2023-03-29T02:30:07.712Z,88.15
2023-03-29T02:33:32.917Z,87.82
2023-03-29T02:36:10.368Z,88.81
2023-03-29T02:38:39.168Z,90.14
2023-03-29T02:41:08.378Z,90.67
2023-03-29T02:43:36.913Z,90.37
2023-03-29T02:46:06.725Z,90.08
2023-03-29T02:48:37.224Z,90.66
2023-03-29T02:51:14.452Z,90.90
2023-03-29T02:53:49.946Z,90.56
2023-03-29T02:56:21.646Z,89.95
2023-03-29T02:58:49.227Z,91.68
2023-03-29T03:01:18.471Z,92.37
2023-03-29T03:03:48.071Z,92.64
2023-03-29T03:06:15.541Z,93.26
2023-03-29T03:08:43.131Z,93.60
2023-03-29T03:11:10.426Z,94.12
2023-03-29T03:13:38.008Z,95.11
2023-03-29T03:16:05.734Z,95.07
2023-03-29T03:18:33.971Z,96.02
2023-03-29T03:21:04.627Z,96.70
2023-03-29T03:23:32.398Z,96.09
2023-03-29T03:25:59.662Z,95.51
2023-03-29T03:28:27.481Z,95.93
2023-03-29T03:30:55.579Z,95.55
2023-03-29T03:33:27.082Z,93.09
2023-03-29T03:36:10.418Z,93.25
2023-03-29T03:38:38.690Z,92.74
2023-03-29T03:41:09.671Z,92.45
2023-03-29T03:43:37.605Z,93.16
2023-03-29T03:46:05.279Z,92.82
2023-03-29T03:48:33.446Z,93.68
2023-03-29T03:51:10.818Z,93.66
2023-03-29T03:53:38.682Z,93.99
2023-03-29T03:56:15.300Z,94.54
2023-03-29T03:59:11.923Z,95.21
2023-03-29T04:02:01.977Z,94.01
2023-03-29T04:04:30.988Z,93.69
2023-03-29T04:07:04.882Z,91.60
2023-03-29T04:09:41.082Z,92.25
2023-03-29T04:12:23.876Z,92.63
2023-03-29T04:14:51.522Z,93.70
2023-03-29T04:17:21.962Z,92.52
2023-03-29T04:20:22.012Z,92.67
2023-03-29T04:22:49.294Z,92.71
2023-03-29T04:25:17.959Z,91.96
2023-03-29T04:27:49.823Z,92.75
2023-03-29T04:30:28.851Z,93.14
2023-03-29T04:33:18.899Z,91.17
2023-03-29T04:35:52.097Z,91.25
2023-03-29T04:38:23.292Z,89.40
2023-03-29T04:40:55.032Z,88.22
2023-03-29T04:43:56.128Z,87.15
2023-03-29T04:46:32.597Z,85.90
2023-03-29T04:49:20.300Z,85.38
2023-03-29T04:51:51.945Z,84.63
2023-03-29T04:54:22.227Z,81.20
2023-03-29T04:57:00.738Z,78.29
2023-03-29T04:59:54.135Z,75.83
2023-03-29T05:02:48.284Z,78.29
2023-03-29T05:05:16.148Z,79.46
2023-03-29T05:07:46.126Z,78.58
2023-03-29T05:10:15.027Z,78.55
2023-03-29T05:12:43.024Z,78.42
2023-03-29T05:15:10.750Z,78.23
2023-03-29T05:17:38.401Z,76.19
2023-03-29T05:20:11.727Z,76.00
2023-03-29T05:22:40.446Z,76.40
2023-03-29T05:25:13.403Z,74.89
2023-03-29T05:27:43.391Z,74.07
2023-03-29T05:30:12.462Z,72.31
2023-03-29T05:32:48.073Z,71.58
2023-03-29T05:35:18.640Z,68.30
2023-03-29T05:37:47.422Z,66.50
2023-03-29T05:40:14.896Z,65.84
2023-03-29T05:43:04.187Z,67.41
2023-03-29T05:45:33.966Z,67.82
2023-03-29T05:48:02.047Z,67.64
2023-03-29T05:50:30.270Z,68.85
2023-03-29T05:52:58.561Z,67.21
2023-03-29T05:55:25.851Z,67.57
2023-03-29T05:57:53.630Z,66.03
2023-03-29T06:00:25.883Z,56.84
2023-03-29T06:03:14.045Z,49.05
2023-03-29T06:05:50.169Z,40.13
2023-03-29T06:08:18.509Z,34.93
2023-03-29T06:11:22.382Z,31.73
2023-03-29T06:14:16.480Z,27.21
2023-03-29T06:16:50.187Z,25.33
2023-03-29T06:19:18.823Z,24.69
2023-03-29T06:21:47.381Z,23.57
2023-03-29T06:24:20.787Z,22.41
2023-03-29T06:26:53.883Z,21.14
2023-03-29T06:29:22.213Z,20.63
2023-03-29T06:31:49.575Z,20.02
2023-03-29T06:34:49.930Z,19.51
2023-03-29T06:37:37.378Z,17.93
2023-03-29T06:40:25.267Z,18.63
2023-03-29T06:42:57.871Z,18.28
2023-03-29T06:45:31.447Z,17.61
2023-03-29T06:48:01.194Z,17.93
2023-03-29T06:50:29.324Z,17.92
2023-03-29T06:53:08.777Z,18.27
2023-03-29T06:55:36.613Z,18.42
2023-03-29T06:58:29.610Z,17.56
2023-03-29T07:01:04.157Z,18.62
2023-03-29T07:03:47.481Z,17.52
2023-03-29T07:06:20.514Z,16.33
2023-03-29T07:08:52.455Z,17.58
2023-03-29T07:11:59.574Z,15.75
2023-03-29T07:14:30.154Z,16.21
2023-03-29T07:17:01.051Z,16.60
2023-03-29T07:19:40.835Z,16.38
2023-03-29T07:22:16.500Z,15.62
2023-03-29T07:24:51.045Z,100.00
2023-03-29T07:27:19.684Z,15.62
2023-03-29T07:29:50.116Z,17.05
2023-03-29T07:32:18.795Z,16.76
2023-03-29T07:34:48.072Z,15.61
2023-03-29T07:37:34.292Z,15.42
2023-03-29T07:40:04.274Z,16.72
2023-03-29T07:42:31.915Z,18.54
2023-03-29T07:44:59.959Z,18.57
2023-03-29T07:47:33.825Z,16.92
2023-03-29T07:50:02.406Z,15.65
2023-03-29T07:52:30.467Z,15.63
2023-03-29T07:54:59.138Z,17.08
2023-03-29T07:57:44.909Z,18.02
2023-03-29T08:00:17.057Z,17.11
2023-03-29T08:02:55.941Z,17.34
2023-03-29T08:05:37.723Z,17.23
2023-03-29T08:08:12.500Z,16.30
2023-03-29T08:10:53.453Z,17.04
2023-03-29T08:13:43.656Z,16.88
2023-03-29T08:16:43.243Z,16.27
2023-03-29T08:19:14.759Z,17.17
2023-03-29T08:22:01.156Z,17.97
2023-03-29T08:24:37.466Z,16.70
2023-03-29T08:27:07.287Z,17.51
2023-03-29T08:29:35.470Z,16.68
2023-03-29T08:32:02.981Z,17.68
2023-03-29T08:34:31.891Z,19.76
2023-03-29T08:37:05.105Z,17.09
2023-03-29T08:39:41.328Z,16.75
2023-03-29T08:42:57.465Z,16.26
2023-03-29T08:45:52.875Z,15.47
2023-03-29T08:48:42.407Z,14.96
2023-03-29T08:51:27.719Z,15.25
2023-03-29T08:54:15.866Z,13.56
2023-03-29T08:57:29.281Z,14.34
2023-03-29T09:00:05.602Z,14.10
2023-03-29T09:02:37.616Z,13.55
2023-03-29T09:05:35.136Z,12.87
2023-03-29T09:08:25.656Z,14.12
2023-03-29T09:11:26.305Z,13.45
2023-03-29T09:13:59.830Z,13.78
2023-03-29T09:16:37.788Z,13.92
2023-03-29T09:19:20.888Z,13.27
2023-03-29T09:21:59.323Z,13.88
2023-03-29T09:24:39.100Z,14.91
2023-03-29T09:27:26.744Z,13.36
2023-03-29T09:30:14.557Z,13.38
2023-03-29T09:33:04.532Z,14.71
2023-03-29T09:35:55.159Z,13.94
2023-03-29T09:38:23.039Z,13.58
2023-03-29T09:40:58.030Z,13.81
2023-03-29T09:43:33.472Z,13.82
2023-03-29T09:46:11.646Z,14.05
2023-03-29T09:48:41.403Z,13.65
2023-03-29T09:51:12.208Z,14.31
2023-03-29T09:53:40.346Z,15.07
2023-03-29T09:56:19.111Z,15.04
2023-03-29T09:58:50.072Z,14.70
2023-03-29T10:01:19.379Z,14.48
2023-03-29T10:03:52.391Z,16.79
2023-03-29T10:06:23.915Z,17.95
2023-03-29T10:08:57.922Z,17.80
2023-03-29T10:11:41.157Z,17.54
2023-03-29T10:14:54.231Z,16.79
2023-03-29T10:17:24.509Z,17.29
2023-03-29T10:19:57.155Z,18.48
2023-03-29T10:22:27.832Z,18.62
2023-03-29T10:24:57.344Z,19.59
2023-03-29T10:27:28.191Z,19.61
2023-03-29T10:29:58.531Z,20.03
2023-03-29T10:32:33.807Z,19.32
2023-03-29T10:35:34.126Z,19.19
2023-03-29T10:38:07.861Z,19.66
2023-03-29T10:40:41.512Z,19.45
2023-03-29T10:43:14.586Z,20.75
2023-03-29T10:45:42.563Z,20.71
2023-03-29T10:48:15.385Z,20.40
2023-03-29T10:50:42.996Z,19.12
2023-03-29T10:53:32.700Z,22.18
2023-03-29T10:56:24.586Z,21.04
2023-03-29T10:59:01.316Z,20.95
2023-03-29T11:01:31.749Z,21.31
2023-03-29T11:04:34.504Z,20.65
2023-03-29T11:07:13.650Z,20.85
2023-03-29T11:09:44.221Z,19.42
2023-03-29T11:12:34.600Z,22.13
2023-03-29T11:15:38.908Z,22.53
2023-03-29T11:18:18.047Z,22.45
2023-03-29T11:20:53.031Z,24.20
2023-03-29T11:23:38.656Z,25.19
2023-03-29T11:26:42.066Z,26.32
2023-03-29T11:29:28.233Z,26.72
2023-03-29T11:32:09.236Z,26.41
2023-03-29T11:34:49.073Z,27.06
2023-03-29T11:37:43.159Z,26.15
2023-03-29T11:40:36.729Z,26.52
2023-03-29T11:43:15.382Z,29.02
2023-03-29T11:45:49.238Z,29.13
2023-03-29T11:48:22.436Z,28.32
2023-03-29T11:51:02.227Z,27.90
2023-03-29T11:53:42.094Z,29.00
2023-03-29T11:56:15.808Z,28.17
2023-03-29T11:58:50.728Z,29.54
2023-03-29T12:01:31.751Z,28.83
2023-03-29T12:04:11.178Z,29.04
2023-03-29T12:06:51.030Z,30.00
2023-03-29T12:09:30.931Z,29.14
2023-03-29T12:12:15.177Z,29.75
2023-03-29T12:14:53.103Z,31.02
2023-03-29T12:17:28.282Z,30.38
2023-03-29T12:20:01.117Z,30.47
2023-03-29T12:22:28.932Z,31.28
2023-03-29T12:24:57.763Z,30.74
2023-03-29T12:27:53.942Z,30.15
2023-03-29T12:30:50.817Z,31.32
2023-03-29T12:33:26.898Z,31.37
2023-03-29T12:36:19.120Z,31.46
2023-03-29T12:39:17.186Z,31.23
2023-03-29T12:42:43.682Z,31.72
2023-03-29T12:45:51.017Z,31.74
2023-03-29T12:48:26.766Z,31.91
2023-03-29T12:51:02.787Z,30.99
2023-03-29T12:54:03.400Z,33.48
2023-03-29T12:57:00.514Z,32.99
2023-03-29T12:59:37.708Z,32.95
2023-03-29T13:02:14.359Z,32.76
2023-03-29T13:04:55.193Z,32.88
2023-03-29T13:07:22.756Z,33.04
2023-03-29T13:09:55.537Z,32.75
2023-03-29T13:12:34.849Z,33.42
2023-03-29T13:15:27.387Z,32.82
2023-03-29T13:18:11.716Z,32.36
2023-03-29T13:20:46.050Z,32.60
2023-03-29T13:23:34.792Z,33.77
2023-03-29T13:26:02.551Z,33.48
2023-03-29T13:29:25.956Z,34.01
2023-03-29T13:32:16.239Z,34.71
2023-03-29T13:35:15.760Z,35.31
2023-03-29T13:38:11.255Z,34.98
2023-03-29T13:40:43.346Z,34.61
2023-03-29T13:43:19.920Z,34.83
2023-03-29T13:45:59.459Z,34.82
2023-03-29T13:49:05.549Z,34.56
2023-03-29T13:51:47.765Z,35.12
2023-03-29T13:54:29.706Z,35.07
2023-03-29T13:57:10.087Z,34.50
2023-03-29T13:59:41.247Z,35.17
2023-03-29T14:02:32.606Z,34.77
2023-03-29T14:05:02.289Z,35.13
2023-03-29T14:07:33.668Z,35.50
2023-03-29T14:10:02.256Z,35.58
2023-03-29T14:12:38.856Z,34.94
2023-03-29T14:15:09.755Z,35.25
2023-03-29T14:17:37.605Z,35.03
2023-03-29T14:20:09.216Z,35.88
2023-03-29T14:22:37.786Z,35.74
2023-03-29T14:25:15.627Z,36.83
2023-03-29T14:27:43.250Z,36.72
2023-03-29T14:30:23.686Z,37.86
2023-03-29T14:32:51.557Z,37.70
2023-03-29T14:35:20.972Z,37.36
2023-03-29T14:37:48.802Z,37.04
2023-03-29T14:40:19.957Z,36.83
2023-03-29T14:42:48.801Z,36.90
2023-03-29T14:45:17.996Z,36.59
2023-03-29T14:47:46.914Z,36.79
2023-03-29T14:50:32.936Z,37.16
2023-03-29T14:53:01.801Z,37.36
2023-03-29T14:55:31.006Z,37.81
2023-03-29T14:58:00.322Z,37.29
2023-03-29T15:00:40.090Z,37.13
2023-03-29T15:03:14.275Z,37.54
2023-03-29T15:05:47.693Z,37.37
2023-03-29T15:08:35.868Z,37.72
2023-03-29T15:11:04.298Z,37.66
2023-03-29T15:13:31.727Z,37.47
2023-03-29T15:16:04.401Z,37.76
2023-03-29T15:18:39.611Z,37.90
2023-03-29T15:21:09.152Z,38.11
2023-03-29T15:23:51.993Z,38.22
2023-03-29T15:26:26.434Z,38.65
2023-03-29T15:29:03.072Z,38.79
2023-03-29T15:31:36.895Z,39.13
2023-03-29T15:34:09.101Z,38.99
2023-03-29T15:36:43.535Z,39.38
2023-03-29T15:39:15.535Z,40.20
2023-03-29T15:41:44.903Z,39.98
2023-03-29T15:44:15.419Z,39.88
2023-03-29T15:46:43.559Z,39.95
2023-03-29T15:49:12.437Z,40.43
2023-03-29T15:51:40.938Z,40.40
2023-03-29T15:54:09.281Z,40.73
2023-03-29T15:56:46.788Z,40.89
2023-03-29T15:59:14.190Z,40.85
2023-03-29T16:01:41.979Z,40.72
2023-03-29T16:04:20.480Z,41.02
2023-03-29T16:06:52.844Z,41.21
2023-03-29T16:09:21.486Z,41.01
2023-03-29T16:11:49.738Z,41.79
2023-03-29T16:14:27.310Z,42.55
2023-03-29T16:16:55.737Z,42.69
2023-03-29T16:19:24.171Z,42.87
2023-03-29T16:21:52.983Z,42.60
2023-03-29T16:24:24.225Z,43.64
2023-03-29T16:26:55.334Z,42.23
2023-03-29T16:29:24.681Z,42.62
2023-03-29T16:31:53.565Z,43.05
2023-03-29T16:34:22.880Z,42.92
2023-03-29T16:36:51.213Z,42.63
2023-03-29T16:39:18.741Z,42.67
2023-03-29T16:41:48.942Z,42.52
2023-03-29T16:44:21.679Z,42.80
2023-03-29T16:46:54.143Z,42.34
2023-03-29T16:49:21.783Z,42.47
2023-03-29T16:51:49.340Z,42.32
2023-03-29T16:54:19.491Z,42.60
2023-03-29T16:56:47.357Z,43.00
2023-03-29T16:59:15.428Z,42.59
2023-03-29T17:01:43.263Z,42.61
2023-03-29T17:04:10.593Z,43.77
2023-03-29T17:06:38.158Z,44.56
2023-03-29T17:09:06.204Z,43.86
2023-03-29T17:11:34.651Z,43.55
2023-03-29T17:14:02.009Z,43.46
2023-03-29T17:16:29.656Z,43.21
2023-03-29T17:19:00.645Z,43.57
2023-03-29T17:21:29.382Z,43.80
2023-03-29T17:23:56.980Z,43.88
2023-03-29T17:26:24.211Z,44.63
2023-03-29T17:28:51.919Z,44.91
2023-03-29T17:31:19.641Z,44.70
2023-03-29T17:33:47.656Z,45.60
2023-03-29T17:36:15.123Z,45.92
2023-03-29T17:38:43.147Z,45.87
2023-03-29T17:41:11.193Z,46.23
2023-03-29T17:43:38.758Z,46.29
2023-03-29T17:46:06.556Z,46.78
2023-03-29T17:48:34.349Z,46.64
2023-03-29T17:51:01.595Z,47.50
2023-03-29T17:53:29.165Z,47.78
2023-03-29T17:55:56.395Z,48.31
2023-03-29T17:58:23.937Z,49.09
2023-03-29T18:00:51.321Z,48.64
2023-03-29T18:03:19.012Z,48.21
2023-03-29T18:05:46.562Z,49.33
2023-03-29T18:08:15.143Z,49.40
2023-03-29T18:10:43.376Z,48.95
2023-03-29T18:13:13.982Z,49.40
2023-03-29T18:15:41.843Z,49.04
2023-03-29T18:18:09.477Z,49.93
2023-03-29T18:20:37.086Z,49.53
2023-03-29T18:23:04.667Z,49.38
2023-03-29T18:25:31.996Z,49.45
2023-03-29T18:27:59.508Z,50.52
2023-03-29T18:30:26.978Z,49.88
2023-03-29T18:32:54.657Z,49.92
2023-03-29T18:35:22.600Z,49.95
2023-03-29T18:37:51.587Z,51.38
2023-03-29T18:40:24.884Z,51.57
2023-03-29T18:42:52.568Z,51.33
2023-03-29T18:45:21.483Z,52.16
2023-03-29T18:47:50.944Z,51.72
2023-03-29T18:50:18.291Z,51.80
2023-03-29T18:52:45.910Z,50.30
2023-03-29T18:55:13.133Z,51.79
2023-03-29T18:57:41.038Z,51.92
2023-03-29T19:00:14.563Z,51.71
2023-03-29T19:02:42.204Z,52.00
2023-03-29T19:05:10.826Z,53.30
2023-03-29T19:07:38.473Z,53.48
2023-03-29T19:10:07.047Z,52.21
2023-03-29T19:12:35.366Z,53.93
2023-03-29T19:15:02.819Z,53.42
2023-03-29T19:17:30.927Z,53.96
2023-03-29T19:19:58.439Z,54.04
2023-03-29T19:22:26.642Z,54.72
2023-03-29T19:24:53.897Z,54.60
2023-03-29T19:27:21.639Z,54.51
2023-03-29T19:29:49.343Z,55.32
2023-03-29T19:32:16.883Z,54.96
2023-03-29T19:34:44.278Z,55.35
2023-03-29T19:37:11.832Z,54.61
2023-03-29T19:39:41.460Z,54.37
2023-03-29T19:42:10.306Z,56.59
2023-03-29T19:44:38.404Z,55.72
2023-03-29T19:47:06.628Z,56.40
2023-03-29T19:49:36.740Z,55.69
2023-03-29T19:52:04.435Z,55.37
2023-03-29T19:54:32.247Z,55.71
2023-03-29T19:57:00.064Z,55.65
2023-03-29T19:59:27.895Z,54.52
2023-03-29T20:01:56.976Z,55.66
2023-03-29T20:04:24.713Z,56.26
2023-03-29T20:06:52.574Z,54.88
2023-03-29T20:09:20.210Z,55.38
2023-03-29T20:11:47.788Z,55.18
2023-03-29T20:14:15.080Z,54.08
2023-03-29T20:16:43.593Z,55.31
2023-03-29T20:19:10.979Z,56.58
2023-03-29T20:21:38.526Z,54.54
2023-03-29T20:24:06.180Z,55.13
2023-03-29T20:26:33.692Z,53.63
2023-03-29T20:29:01.945Z,53.44
2023-03-29T20:31:30.116Z,53.94
2023-03-29T20:33:57.722Z,54.22
2023-03-29T20:36:26.750Z,54.11
2023-03-29T20:38:56.339Z,53.94
2023-03-29T20:41:23.980Z,54.22
2023-03-29T20:43:58.391Z,55.58
2023-03-29T20:46:33.829Z,54.86
2023-03-29T20:49:07.456Z,55.49
2023-03-29T20:51:36.345Z,54.31
2023-03-29T20:54:07.753Z,54.77
2023-03-29T20:56:39.033Z,54.68
2023-03-29T20:59:10.668Z,55.32
2023-03-29T21:01:40.719Z,55.39
2023-03-29T21:04:10.954Z,54.99
2023-03-29T21:06:41.738Z,54.14
2023-03-29T21:09:09.048Z,54.30
2023-03-29T21:11:36.636Z,53.33
2023-03-29T21:14:04.237Z,53.12
2023-03-29T21:16:32.006Z,54.24
2023-03-29T21:18:59.286Z,53.87
2023-03-29T21:21:26.949Z,53.95
2023-03-29T21:23:54.144Z,53.97
2023-03-29T21:26:22.837Z,54.38
2023-03-29T21:28:50.446Z,54.97
2023-03-29T21:31:18.002Z,54.73
2023-03-29T21:33:45.274Z,53.46
2023-03-29T21:36:12.877Z,52.90
2023-03-29T21:38:40.481Z,52.86
2023-03-29T21:41:12.136Z,52.34
2023-03-29T21:43:40.468Z,53.12
2023-03-29T21:46:08.821Z,53.17
2023-03-29T21:48:36.435Z,53.62
2023-03-29T21:51:05.083Z,54.74
2023-03-29T21:53:32.612Z,54.09
2023-03-29T21:56:00.336Z,53.62
2023-03-29T21:58:27.724Z,53.43
2023-03-29T22:00:56.406Z,52.80
2023-03-29T22:03:23.904Z,53.23
2023-03-29T22:06:03.205Z,52.97
2023-03-29T22:08:31.107Z,53.09
2023-03-29T22:11:08.237Z,52.78
2023-03-29T22:13:36.075Z,52.67
2023-03-29T22:16:04.763Z,52.23
2023-03-29T22:18:42.468Z,52.10
2023-03-29T22:21:15.884Z,51.97
2023-03-29T22:23:45.912Z,51.96
2023-03-29T22:26:15.745Z,52.72
2023-03-29T22:28:43.358Z,52.64
2023-03-29T22:31:16.554Z,52.86
2023-03-29T22:33:44.469Z,52.46
2023-03-29T22:36:15.948Z,52.91
2023-03-29T22:38:44.266Z,52.44
2023-03-29T22:41:12.392Z,52.39
2023-03-29T22:43:39.796Z,52.69
2023-03-29T22:46:10.735Z,52.94
2023-03-29T22:48:38.583Z,52.58
2023-03-29T22:51:06.859Z,52.57
2023-03-29T22:53:34.270Z,52.29
2023-03-29T22:56:01.897Z,52.07
2023-03-29T22:58:31.889Z,52.54
2023-03-29T23:00:59.585Z,52.31
2023-03-29T23:03:26.906Z,52.68
2023-03-29T23:05:56.572Z,52.94
2023-03-29T23:08:25.271Z,53.29
2023-03-29T23:10:52.960Z,53.87
2023-03-29T23:13:24.378Z,54.13
2023-03-29T23:15:54.736Z,54.62
2023-03-29T23:18:23.686Z,54.03
2023-03-29T23:20:54.743Z,53.69
2023-03-29T23:23:23.474Z,53.87
2023-03-29T23:25:53.045Z,54.82
2023-03-29T23:28:30.733Z,54.58
2023-03-29T23:31:01.063Z,54.94
2023-03-29T23:33:35.296Z,54.58
2023-03-29T23:36:05.318Z,54.88
2023-03-29T23:38:34.466Z,55.28
2023-03-29T23:41:04.888Z,56.56
2023-03-29T23:43:35.081Z,56.34
2023-03-29T23:46:08.667Z,56.54
2023-03-29T23:48:36.762Z,57.13
2023-03-29T23:51:05.764Z,57.25
2023-03-29T23:53:33.188Z,57.03
2023-03-29T23:56:04.093Z,57.15
2023-03-29T23:58:33.968Z,56.68
